Time;durP1;ratioP1;P1;durP2;ratioP2;P2;SDS_P1;SDS_P2;PMS_P1;PMS_P2;Temp;Humidity;BMP_temperature;BMP_pressure;BME280_temperature;BME280_humidity;BME280_pressure;Samples;Min_cycle;Max_cycle;Signal;HPM_P1;HPM_P2
2022/01/26 00:05:44;;;;;;;90.95;23.48;;;;;;;0.32;86.81;97602.19;4971854;28;20057;-78
2022/01/26 00:06:30;;;;;;;93.95;22.67;;;;;;;0.37;87.20;97600.47;4970992;28;20667;-78
2022/01/26 00:08:56;;;;;;;106.35;25.00;;;;;;;0.36;87.14;97600.69;4971566;28;20057;-79
2022/01/26 00:11:23;;;;;;;92.72;23.63;;;;;;;0.37;87.10;97600.47;4970522;28;20552;-79
2022/01/26 00:13:50;;;;;;;99.53;24.20;;;;;;;0.44;87.48;97600.41;4971388;28;20498;-78
2022/01/26 00:16:25;;;;;;;112.60;24.83;;;;;;;0.49;87.05;97590.66;4970743;28;20078;-78
2022/01/26 00:18:55;;;;;;;91.18;22.92;;;;;;;0.49;86.99;97597.88;4971452;28;20055;-78
2022/01/26 00:21:29;;;;;;;92.50;23.75;;;;;;;0.52;86.93;97592.06;4970731;28;20058;-78
2022/01/26 00:24:23;;;;;;;101.50;23.73;;;;;;;0.54;86.64;97590.00;4971500;28;20057;-78
2022/01/26 00:27:09;;;;;;;79.10;23.88;;;;;;;0.55;86.48;97596.97;4971375;28;20049;-79
2022/01/26 00:29:38;;;;;;;91.68;24.02;;;;;;;0.52;86.48;97586.69;4971231;28;20061;-79
2022/01/26 00:40:30;;;;;;;93.30;23.77;;;;;;;0.50;86.66;97578.06;4970726;28;20191;-78
2022/01/26 00:43:01;;;;;;;105.80;24.88;;;;;;;0.49;86.79;97579.13;4967939;28;20059;-78
2022/01/26 00:45:34;;;;;;;87.25;23.55;;;;;;;0.48;86.91;97574.81;4970547;28;20078;-78
2022/01/26 00:48:05;;;;;;;90.95;24.55;;;;;;;0.53;87.02;97577.63;4970759;28;20063;-78
2022/01/26 00:50:32;;;;;;;98.65;24.77;;;;;;;0.56;87.09;97577.16;4970809;28;20133;-78
2022/01/26 00:52:58;;;;;;;92.75;24.75;;;;;;;0.61;86.98;97574.63;4970894;28;20054;-78
2022/01/26 00:55:25;;;;;;;99.40;25.50;;;;;;;0.66;86.99;97580.13;4969869;28;20078;-78
2022/01/26 00:57:52;;;;;;;110.00;26.27;;;;;;;0.72;86.86;97565.84;4970332;28;20069;-78
2022/01/26 01:00:22;;;;;;;98.18;26.17;;;;;;;0.75;86.63;97559.22;4970140;28;20050;-80
2022/01/26 01:02:49;;;;;;;89.78;25.40;;;;;;;0.80;86.06;97561.22;4970662;28;20054;-79
2022/01/26 01:05:19;;;;;;;88.78;24.25;;;;;;;0.73;85.49;97555.91;4969795;28;20069;-78
2022/01/26 01:07:48;;;;;;;89.78;25.85;;;;;;;0.71;85.57;97558.84;4970277;28;20062;-78
2022/01/26 01:10:18;;;;;;;82.90;25.60;;;;;;;0.63;85.91;97556.47;4969846;28;20605;-79
2022/01/26 01:12:45;;;;;;;97.43;27.80;;;;;;;0.61;86.34;97558.56;4967445;28;20058;-79
2022/01/26 01:15:13;;;;;;;91.60;26.33;;;;;;;0.63;86.40;97556.47;4969583;28;20090;-78
2022/01/26 01:17:43;;;;;;;89.40;26.27;;;;;;;0.68;86.75;97564.66;4970310;28;20046;-78
2022/01/26 01:20:21;;;;;;;87.10;26.33;;;;;;;0.69;86.71;97552.09;4969955;28;20083;-79
2022/01/26 01:23:07;;;;;;;91.07;26.63;;;;;;;0.65;86.49;97557.06;4970081;28;20536;-79
2022/01/26 01:28:28;;;;;;;91.85;26.90;;;;;;;0.68;86.56;97553.09;4969768;28;20112;-78
2022/01/26 01:30:58;;;;;;;89.68;27.48;;;;;;;0.64;86.57;97552.75;4969861;28;20062;-80
2022/01/26 01:33:31;;;;;;;86.80;28.52;;;;;;;0.57;87.01;97552.00;4969633;28;20502;-78
2022/01/26 01:35:58;;;;;;;92.83;28.30;;;;;;;0.57;87.12;97553.84;4969822;28;20053;-78
2022/01/26 01:38:29;;;;;;;86.10;26.92;;;;;;;0.54;87.19;97560.50;4969317;28;20313;-78
2022/01/26 01:40:55;;;;;;;84.88;27.92;;;;;;;0.60;87.89;97562.28;4969834;28;20506;-78
2022/01/26 01:43:24;;;;;;;90.70;28.00;;;;;;;0.66;88.01;97560.56;4966728;28;20062;-78
2022/01/26 01:45:53;;;;;;;97.53;30.45;;;;;;;0.65;87.52;97559.75;4969769;28;20051;-78
2022/01/26 01:48:23;;;;;;;101.90;29.05;;;;;;;0.68;87.50;97562.00;4969295;28;20561;-78
2022/01/26 01:50:52;;;;;;;94.97;28.00;;;;;;;0.72;87.31;97560.47;4969892;28;20054;-78
2022/01/26 01:53:20;;;;;;;116.40;29.67;;;;;;;0.71;87.15;97558.03;4969014;28;20078;-78
2022/01/26 01:55:50;;;;;;;99.03;28.98;;;;;;;0.72;87.11;97556.97;4969303;28;20055;-78
2022/01/26 01:58:18;;;;;;;101.90;28.08;;;;;;;0.72;87.18;97560.47;4968852;28;20685;-78
2022/01/26 02:00:46;;;;;;;102.20;28.30;;;;;;;0.70;87.10;97551.84;4969570;28;20056;-78
2022/01/26 02:03:13;;;;;;;113.53;29.60;;;;;;;0.68;86.96;97551.25;4969101;28;20051;-79
2022/01/26 02:05:39;;;;;;;116.55;29.58;;;;;;;0.71;87.06;97548.13;4968764;28;20061;-79
2022/01/26 02:08:06;;;;;;;109.97;28.77;;;;;;;0.71;87.08;97548.13;4969135;28;20421;-78
2022/01/26 02:10:34;;;;;;;117.28;28.50;;;;;;;0.73;87.16;97540.69;4969123;28;20810;-78
2022/01/26 02:13:07;;;;;;;128.55;30.13;;;;;;;0.74;87.03;97547.69;4966531;28;20050;-78
2022/01/26 02:15:42;;;;;;;123.32;29.20;;;;;;;0.78;87.02;97548.88;4968985;28;20508;-79
2022/01/26 02:18:25;;;;;;;116.72;30.17;;;;;;;0.87;86.52;97546.66;4968889;28;20047;-77
2022/01/26 02:51:36;;;;;;;117.38;32.47;;;;;;;0.93;85.77;97524.31;4968462;28;20163;-79
2022/01/26 02:57:30;;;;;;;122.65;31.92;;;;;;;1.04;85.69;97514.66;4968228;28;20199;-79
2022/01/26 03:02:43;;;;;;;117.93;31.13;;;;;;;1.00;84.96;97513.50;4972663;28;20049;-78
2022/01/26 03:05:12;;;;;;;114.60;31.70;;;;;;;0.87;85.60;97513.69;4972077;28;20501;-78
2022/01/26 03:07:47;;;;;;;106.53;30.35;;;;;;;0.85;85.78;97515.78;4972518;28;20047;-78
2022/01/26 03:10:21;;;;;;;105.03;31.08;;;;;;;0.85;86.33;97515.78;4972234;28;20142;-78
2022/01/26 03:12:53;;;;;;;92.57;28.27;;;;;;;0.78;86.23;97511.34;4969602;28;20422;-78
2022/01/26 03:15:24;;;;;;;101.13;30.55;;;;;;;0.68;86.29;97508.38;4971774;28;20059;-78
2022/01/26 03:18:26;;;;;;;94.05;28.70;;;;;;;0.68;86.83;97511.06;4972455;28;20692;-78
2022/01/26 03:20:56;;;;;;;92.22;29.33;;;;;;;0.64;87.13;97515.22;4972355;28;20043;-77
2022/01/26 03:29:09;;;;;;;101.32;31.08;;;;;;;0.64;86.95;97501.81;4972435;28;20081;-78
2022/01/26 03:34:18;;;;;;;103.43;30.52;;;;;;;0.66;87.29;97502.41;4971592;28;20035;-78
2022/01/26 03:36:49;;;;;;;102.90;31.45;;;;;;;0.68;87.40;97505.69;4972229;28;20142;-78
2022/01/26 03:39:19;;;;;;;99.22;30.67;;;;;;;0.63;87.33;97512.78;4966170;28;20187;-78
2022/01/26 03:41:50;;;;;;;104.05;32.40;;;;;;;0.58;87.41;97509.97;4972073;28;20066;-78
2022/01/26 03:44:18;;;;;;;95.90;30.98;;;;;;;0.51;87.56;97510.84;4970719;28;20086;-78
2022/01/26 03:46:49;;;;;;;97.18;30.65;;;;;;;0.46;87.91;97515.22;4963288;28;20046;-78
2022/01/26 03:49:16;;;;;;;89.30;28.67;;;;;;;0.47;88.16;97520.41;4971414;28;20062;-78
2022/01/26 03:51:43;;;;;;;87.80;30.02;;;;;;;0.49;88.01;97522.84;4972003;28;20074;-78
2022/01/26 03:54:11;;;;;;;89.68;30.67;;;;;;;0.47;87.76;97519.53;4970987;28;20065;-78
2022/01/26 03:56:38;;;;;;;95.20;31.90;;;;;;;0.49;88.23;97522.84;4971316;28;20050;-78
2022/01/26 03:59:06;;;;;;;89.22;30.40;;;;;;;0.55;88.28;97523.78;4971133;28;20046;-78
2022/01/26 04:01:33;;;;;;;94.97;30.70;;;;;;;0.61;88.17;97525.56;4971591;28;20085;-78
2022/01/26 04:04:01;;;;;;;113.07;33.08;;;;;;;0.65;88.10;97522.22;4971714;28;20146;-78
2022/01/26 04:06:29;;;;;;;101.82;32.28;;;;;;;0.65;87.37;97524.91;4971213;28;20046;-78
2022/01/26 04:08:55;;;;;;;103.53;31.92;;;;;;;0.72;87.70;97527.47;4971511;28;20058;-78
2022/01/26 04:11:34;;;;;;;107.32;34.35;;;;;;;0.64;87.16;97523.25;4970656;28;20063;-79
2022/01/26 04:14:07;;;;;;;103.75;32.83;;;;;;;0.55;87.00;97518.44;4970624;28;20050;-78
2022/01/26 04:16:33;;;;;;;105.43;34.15;;;;;;;0.56;87.77;97517.38;4970758;28;20125;-78
2022/01/26 04:19:00;;;;;;;108.10;33.08;;;;;;;0.56;87.39;97523.56;4971345;28;20043;-78
2022/01/26 04:21:36;;;;;;;105.20;31.83;;;;;;;0.55;87.38;97516.56;4970972;28;20116;-79
2022/01/26 04:24:08;;;;;;;107.15;33.17;;;;;;;0.48;87.18;97513.16;4970678;28;20051;-78
2022/01/26 04:26:41;;;;;;;123.80;34.50;;;;;;;0.55;87.65;97505.84;4971266;28;20055;-78
2022/01/26 04:29:14;;;;;;;115.47;33.38;;;;;;;0.61;87.71;97504.13;4970746;28;20057;-77
2022/01/26 04:31:41;;;;;;;87.80;26.27;;;;;;;0.66;87.46;97513.13;4971114;28;20054;-78
2022/01/26 04:34:07;;;;;;;114.65;32.38;;;;;;;0.65;87.48;97510.69;4970336;28;20510;-77
2022/01/26 04:36:39;;;;;;;111.47;31.42;;;;;;;0.71;87.04;97518.63;4970644;28;20055;-78
2022/01/26 04:39:10;;;;;;;111.53;33.22;;;;;;;0.72;86.77;97514.91;4970727;28;20081;-78
2022/01/26 04:41:41;;;;;;;107.85;33.15;;;;;;;0.64;86.57;97523.25;4971008;28;20057;-78
2022/01/26 04:44:16;;;;;;;100.80;33.90;;;;;;;0.52;86.80;97511.66;4970368;28;20600;-78
2022/01/26 04:46:42;;;;;;;104.45;33.60;;;;;;;0.46;87.57;97523.28;4970377;28;20395;-78
2022/01/26 04:49:09;;;;;;;107.03;31.98;;;;;;;0.46;87.73;97520.59;4970127;28;20050;-79
2022/01/26 04:51:35;;;;;;;111.28;33.35;;;;;;;0.50;88.04;97524.47;4970561;28;20054;-78
2022/01/26 04:54:02;;;;;;;109.22;33.67;;;;;;;0.50;87.47;97519.09;4970003;28;20101;-79
2022/01/26 04:56:28;;;;;;;100.63;30.73;;;;;;;0.48;87.30;97515.84;4970784;28;20054;-78
2022/01/26 04:58:55;;;;;;;93.65;32.33;;;;;;;0.52;87.73;97511.66;4970585;28;20051;-78
2022/01/26 05:01:23;;;;;;;96.78;30.27;;;;;;;0.49;87.32;97512.94;4969968;28;20062;-78
2022/01/26 05:03:49;;;;;;;102.95;33.03;;;;;;;0.44;87.27;97509.28;4970147;28;20051;-79
2022/01/26 05:06:16;;;;;;;103.88;31.75;;;;;;;0.37;87.54;97513.94;4969391;28;20438;-78
2022/01/26 05:08:42;;;;;;;104.18;31.85;;;;;;;0.35;87.89;97510.63;4970258;28;20050;-78
2022/01/26 05:11:12;;;;;;;99.78;32.03;;;;;;;0.29;88.08;97507.00;4970049;28;20573;-78
2022/01/26 05:13:39;;;;;;;99.93;31.55;;;;;;;0.19;88.22;97507.50;4970397;28;20061;-78
2022/01/26 05:16:08;;;;;;;99.55;31.65;;;;;;;0.16;88.79;97507.97;4969128;28;20120;-79
2022/01/26 05:18:37;;;;;;;95.72;32.00;;;;;;;0.17;89.01;97509.59;4970241;28;20058;-78
2022/01/26 05:21:03;;;;;;;105.03;33.40;;;;;;;0.22;88.95;97503.59;4969567;28;20055;-78
2022/01/26 05:23:30;;;;;;;96.45;31.10;;;;;;;0.18;88.79;97505.88;4969587;28;20105;-79
2022/01/26 05:25:56;;;;;;;100.65;31.98;;;;;;;0.20;88.77;97511.00;4970031;28;20685;-78
2022/01/26 05:28:23;;;;;;;99.18;31.90;;;;;;;0.24;88.75;97510.34;4969337;28;20058;-79
2022/01/26 05:30:49;;;;;;;101.47;31.02;;;;;;;0.20;88.45;97509.16;4969656;28;20054;-78
2022/01/26 05:33:16;;;;;;;90.93;30.58;;;;;;;0.19;88.50;97512.06;4969345;28;20069;-78
2022/01/26 05:35:43;;;;;;;88.10;29.60;;;;;;;0.08;88.49;97500.22;4969396;28;20413;-78
2022/01/26 05:38:10;;;;;;;93.15;29.50;;;;;;;-0.04;88.46;97502.00;4969122;28;20047;-78
2022/01/26 05:40:36;;;;;;;93.03;29.70;;;;;;;-0.10;88.85;97502.91;4969989;28;20061;-78
2022/01/26 05:43:03;;;;;;;93.15;29.13;;;;;;;-0.15;89.10;97510.78;4969259;28;20082;-78
2022/01/26 05:45:34;;;;;;;95.72;30.25;;;;;;;-0.13;89.31;97514.88;4969362;28;20077;-78
2022/01/26 05:48:02;;;;;;;95.32;30.95;;;;;;;-0.02;89.56;97516.00;4969594;28;20533;-78
2022/01/26 05:50:29;;;;;;;101.10;30.42;;;;;;;0.01;89.36;97515.56;4969344;28;20065;-79
2022/01/26 05:52:57;;;;;;;107.60;32.92;;;;;;;-0.02;89.02;97526.69;4969547;28;20054;-78
2022/01/26 05:55:23;;;;;;;99.95;30.75;;;;;;;-0.05;89.18;97513.78;4968901;28;20097;-78
2022/01/26 05:57:50;;;;;;;98.75;32.70;;;;;;;-0.09;89.11;97512.56;4969515;28;20058;-78
2022/01/26 06:00:16;;;;;;;104.05;32.60;;;;;;;-0.08;89.32;97522.22;4968899;28;20098;-78
2022/01/26 06:02:43;;;;;;;104.70;32.42;;;;;;;-0.08;89.31;97516.88;4969510;28;20043;-78
2022/01/26 06:05:10;;;;;;;101.43;31.70;;;;;;;-0.06;89.32;97514.78;4968473;28;20054;-78
2022/01/26 06:07:36;;;;;;;98.28;32.20;;;;;;;-0.10;89.00;97519.78;4969208;28;20054;-78
2022/01/26 06:10:05;;;;;;;107.43;32.60;;;;;;;-0.19;88.85;97522.97;4968763;28;20777;-78
2022/01/26 06:12:33;;;;;;;99.68;30.55;;;;;;;-0.28;89.06;97528.59;4969570;28;20057;-78
2022/01/26 06:15:01;;;;;;;90.88;30.27;;;;;;;-0.31;89.39;97534.41;4968584;28;20442;-78
2022/01/26 06:17:28;;;;;;;101.82;30.63;;;;;;;-0.29;89.57;97531.50;4968441;28;20102;-79
2022/01/26 06:19:54;;;;;;;103.50;30.58;;;;;;;-0.24;89.76;97531.66;4969207;28;20062;-78
2022/01/26 06:22:21;;;;;;;94.28;31.08;;;;;;;-0.33;89.54;97525.75;4968486;28;20050;-78
2022/01/26 06:24:48;;;;;;;92.20;30.27;;;;;;;-0.37;89.70;97529.09;4968943;28;20059;-79
2022/01/26 06:27:16;;;;;;;89.82;29.27;;;;;;;-0.41;89.92;97522.56;4968431;28;20546;-79
2022/01/26 06:29:42;;;;;;;95.88;30.17;;;;;;;-0.40;89.89;97525.00;4969026;28;20051;-77
2022/01/26 06:32:09;;;;;;;93.95;30.88;;;;;;;-0.39;89.99;97517.78;4968646;28;20051;-80
2022/01/26 06:34:38;;;;;;;94.32;30.85;;;;;;;-0.38;90.13;97525.59;4969140;28;20054;-80
2022/01/26 06:37:06;;;;;;;91.00;29.90;;;;;;;-0.35;89.85;97521.69;4967996;28;20053;-79
2022/01/26 06:39:32;;;;;;;98.95;31.50;;;;;;;-0.33;89.79;97519.59;4969139;28;20465;-78
2022/01/26 06:41:59;;;;;;;94.80;29.92;;;;;;;-0.33;89.62;97519.59;4968749;28;20054;-79
2022/01/26 06:44:31;;;;;;;87.93;29.27;;;;;;;-0.25;89.57;97516.63;4968193;28;20499;-77
2022/01/26 06:47:15;;;;;;;94.05;29.30;;;;;;;-0.24;89.31;97523.63;4963989;28;20054;-77
2022/01/26 06:49:41;;;;;;;;;;;;;;;-0.19;89.48;97528.31;4969074;28;20061;-77
2022/01/26 06:52:08;;;;;;;93.18;30.05;;;;;;;-0.17;89.28;97528.91;4968508;28;19926;-76
2022/01/26 06:54:34;;;;;;;94.88;29.27;;;;;;;-0.18;88.97;97537.97;4968409;28;20054;-79
2022/01/26 06:57:01;;;;;;;86.45;28.95;;;;;;;-0.19;88.81;97542.53;4967989;28;20580;-77
2022/01/26 06:59:29;;;;;;;88.40;30.40;;;;;;;-0.24;88.83;97541.53;4968556;28;20054;-77
2022/01/26 07:01:55;;;;;;;88.97;30.35;;;;;;;-0.22;88.91;97534.91;4968508;28;20051;-78
2022/01/26 07:04:22;;;;;;;97.55;31.20;;;;;;;-0.24;88.71;97538.88;4968091;28;20062;-77
2022/01/26 07:06:48;;;;;;;93.32;30.98;;;;;;;-0.27;88.78;97545.47;4968144;28;20063;-81
2022/01/26 07:09:16;;;;;;;100.47;30.35;;;;;;;-0.32;88.92;97543.44;4968479;28;20051;-80
2022/01/26 07:11:43;;;;;;;105.15;32.15;;;;;;;-0.36;89.30;97542.28;4968980;28;20082;-80
2022/01/26 07:14:10;;;;;;;102.78;31.38;;;;;;;-0.32;89.42;97535.41;4967706;28;20134;-80
2022/01/26 07:22:07;;;;;;;99.97;30.98;;;;;;;-0.32;89.24;97546.13;4968277;28;20575;-80
2022/01/26 07:24:33;;;;;;;92.85;30.88;;;;;;;-0.27;89.21;97543.59;4968489;28;20050;-80
2022/01/26 07:27:00;;;;;;;89.22;31.38;;;;;;;-0.36;89.15;97557.50;4968405;28;20074;-81
2022/01/26 07:29:26;;;;;;;87.32;32.05;;;;;;;-0.39;88.94;97553.41;4968430;28;20066;-81
2022/01/26 07:31:54;;;;;;;80.20;29.13;;;;;;;-0.40;88.87;97557.13;4968429;28;20065;-80
2022/01/26 07:34:23;;;;;;;82.75;27.98;;;;;;;-0.35;88.98;97564.50;4968256;28;20054;-81
2022/01/26 07:36:52;;;;;;;85.40;28.88;;;;;;;-0.27;89.10;97559.66;4968498;28;20046;-80
2022/01/26 07:39:29;;;;;;;72.40;26.27;;;;;;;-0.27;88.15;97548.97;4968505;28;20062;-81
2022/01/26 07:41:56;;;;;;;79.82;27.13;;;;;;;-0.32;87.98;97556.81;4968565;28;20142;-81
2022/01/26 07:44:22;;;;;;;80.80;28.15;;;;;;;-0.27;88.23;97553.50;4968379;28;20053;-80
2022/01/26 07:46:49;;;;;;;86.05;29.50;;;;;;;-0.27;88.49;97557.00;4967815;28;20058;-80
2022/01/26 07:49:17;;;;;;;83.72;28.50;;;;;;;-0.34;88.47;97553.56;4971638;28;20043;-81
2022/01/26 07:51:44;;;;;;;80.28;28.08;;;;;;;-0.35;88.76;97559.16;4972148;28;20085;-81
2022/01/26 07:54:10;;;;;;;83.68;29.98;;;;;;;-0.38;88.92;97557.72;4971109;28;20399;-80
2022/01/26 07:56:37;;;;;;;79.88;29.50;;;;;;;-0.43;88.62;97554.88;4971683;28;20510;-79
2022/01/26 07:59:04;;;;;;;81.88;28.02;;;;;;;-0.42;88.88;97559.19;4971652;28;20670;-81
2022/01/26 08:01:30;;;;;;;71.55;25.02;;;;;;;-0.39;88.74;97553.41;4972069;28;20050;-80
2022/01/26 08:03:57;;;;;;;74.95;25.98;;;;;;;-0.38;88.36;97557.72;4971761;28;20051;-81
2022/01/26 08:06:25;;;;;;;72.82;25.73;;;;;;;-0.41;88.19;97555.50;4970697;28;20494;-80
2022/01/26 08:08:51;;;;;;;79.15;26.45;;;;;;;-0.41;88.04;97549.31;4971687;28;20051;-81
2022/01/26 08:11:18;;;;;;;75.72;26.85;;;;;;;-0.41;88.35;97550.13;4971553;28;20062;-79
2022/01/26 08:13:44;;;;;;;67.80;25.73;;;;;;;-0.38;88.33;97546.19;4971718;28;20043;-80
2022/01/26 08:16:10;;;;;;;68.38;25.20;;;;;;;-0.35;87.86;97545.75;4970334;28;20062;-80
2022/01/26 08:18:37;;;;;;;67.20;24.13;;;;;;;-0.22;88.07;97544.81;4971492;28;20502;-80
2022/01/26 08:21:05;;;;;;;63.75;23.55;;;;;;;-0.15;87.08;97542.91;4971152;28;20053;-82
2022/01/26 08:23:36;;;;;;;75.90;27.83;;;;;;;-0.15;87.00;97533.03;4971844;28;20134;-80
2022/01/26 08:26:02;;;;;;;71.97;26.17;;;;;;;-0.14;86.88;97534.66;4970848;28;20137;-81
2022/01/26 08:28:34;;;;;;;69.97;26.63;;;;;;;-0.21;86.96;97541.91;4971435;28;20055;-81
2022/01/26 08:31:01;;;;;;;75.30;28.45;;;;;;;-0.24;87.12;97528.16;4971187;28;20054;-81
2022/01/26 08:33:27;;;;;;;71.25;27.73;;;;;;;-0.28;87.15;97531.25;4971027;28;20081;-80
2022/01/26 08:35:54;;;;;;;74.65;26.88;;;;;;;-0.32;86.89;97530.06;4970549;28;20054;-80
2022/01/26 08:38:21;;;;;;;68.65;25.23;;;;;;;-0.38;87.15;97536.28;4970632;28;20054;-80
2022/01/26 08:40:49;;;;;;;72.90;28.42;;;;;;;-0.39;87.09;97537.34;4971297;28;20054;-80
2022/01/26 08:43:16;;;;;;;74.32;28.50;;;;;;;-0.47;87.32;97537.63;4970697;28;20055;-80
2022/01/26 08:45:43;;;;;;;70.90;27.85;;;;;;;-0.52;87.65;97532.13;4970488;28;20057;-81
2022/01/26 08:48:11;;;;;;;71.20;26.75;;;;;;;-0.54;88.00;97529.63;4970292;28;20586;-80
2022/01/26 08:50:38;;;;;;;72.75;26.23;;;;;;;-0.53;88.04;97531.28;4970982;28;20063;-81
2022/01/26 08:53:05;;;;;;;74.45;27.85;;;;;;;-0.48;88.17;97530.63;4970661;28;20054;-80
2022/01/26 08:55:33;;;;;;;75.15;28.48;;;;;;;-0.47;87.93;97542.97;4970662;28;20051;-80
2022/01/26 08:58:01;;;;;;;75.18;27.63;;;;;;;-0.48;87.81;97546.69;4970524;28;20051;-80
2022/01/26 09:00:27;;;;;;;69.07;27.73;;;;;;;-0.47;88.22;97545.66;4970442;28;20098;-80
2022/01/26 09:02:55;;;;;;;67.57;25.88;;;;;;;-0.50;88.03;97548.75;4970733;28;20518;-80
2022/01/26 09:05:21;;;;;;;71.47;27.60;;;;;;;-0.45;88.20;97538.22;4969846;28;20497;-80
2022/01/26 09:07:50;;;;;;;76.78;27.45;;;;;;;-0.44;88.05;97533.69;4970496;28;20651;-80
2022/01/26 09:10:16;;;;;;;74.50;28.52;;;;;;;-0.41;87.77;97543.97;4970212;28;20412;-80
2022/01/26 09:12:45;;;;;;;73.05;27.42;;;;;;;-0.32;87.48;97559.50;4970693;28;20055;-80
2022/01/26 09:15:14;;;;;;;69.00;27.48;;;;;;;-0.28;86.82;97560.72;4969768;28;20051;-79
2022/01/26 09:17:42;;;;;;;71.78;27.90;;;;;;;-0.20;86.90;97556.94;4970130;28;20055;-80
2022/01/26 09:20:10;;;;;;;72.65;26.58;;;;;;;-0.13;86.33;97557.69;4970094;28;20102;-80
2022/01/26 09:22:37;;;;;;;70.78;27.92;;;;;;;-0.38;85.46;97549.69;4970253;28;20059;-81
2022/01/26 09:25:04;;;;;;;71.68;27.92;;;;;;;-0.49;86.14;97545.03;4969685;28;20502;-82
2022/01/26 09:27:31;;;;;;;74.13;28.25;;;;;;;-0.46;86.81;97538.44;4970210;28;20078;-80
2022/01/26 09:29:57;;;;;;;74.32;28.80;;;;;;;-0.55;86.79;97543.25;4970087;28;20046;-80
2022/01/26 09:32:25;;;;;;;76.10;28.40;;;;;;;-0.44;87.40;97555.91;4969666;28;20050;-79
2022/01/26 09:34:52;;;;;;;73.45;27.92;;;;;;;-0.34;87.38;97561.59;4969860;28;20054;-80
2022/01/26 09:37:18;;;;;;;78.60;28.92;;;;;;;-0.21;87.18;97565.19;4969794;28;20057;-80
2022/01/26 09:39:47;;;;;;;75.88;29.90;;;;;;;-0.12;86.43;97566.53;4970098;28;20058;-81
2022/01/26 09:42:14;;;;;;;68.00;28.80;;;;;;;-0.07;86.21;97566.72;4969656;28;20054;-81
2022/01/26 09:44:41;;;;;;;69.75;27.40;;;;;;;-0.08;85.85;97568.56;4969814;28;20410;-81
2022/01/26 09:47:09;;;;;;;68.45;27.85;;;;;;;0.00;86.04;97559.44;4968991;28;20054;-80
2022/01/26 09:49:37;;;;;;;71.93;27.35;;;;;;;0.03;85.57;97561.66;4969995;28;20057;-80
2022/01/26 09:52:13;;;;;;;73.93;28.85;;;;;;;-0.03;85.29;97573.25;4969682;28;20051;-80
2022/01/26 09:54:40;;;;;;;73.15;30.13;;;;;;;0.00;85.33;97562.13;4969600;28;20113;-80
2022/01/26 09:57:06;;;;;;;74.30;28.88;;;;;;;0.05;84.64;97570.28;4968910;28;20062;-80
2022/01/26 09:59:33;;;;;;;74.70;29.13;;;;;;;-0.01;84.70;97565.81;4969714;28;20054;-80
2022/01/26 10:02:02;;;;;;;75.60;29.50;;;;;;;-0.05;85.18;97570.00;4969742;28;20058;-80
2022/01/26 10:04:32;;;;;;;73.68;29.63;;;;;;;-0.03;85.54;97573.25;4969661;28;20047;-80
2022/01/26 10:07:17;;;;;;;77.80;29.83;;;;;;;-0.06;85.62;97558.44;4969543;28;20042;-81
2022/01/26 10:10:03;;;;;;;73.15;29.33;;;;;;;-0.03;85.41;97558.00;4969147;28;20137;-79
2022/01/26 10:15:33;;;;;;;71.50;30.38;;;;;;;-0.07;85.72;97556.00;4968587;28;20050;-81
2022/01/26 10:18:02;;;;;;;70.18;27.92;;;;;;;-0.04;86.08;97559.06;4969367;28;20105;-81
2022/01/26 10:20:28;;;;;;;77.53;28.25;;;;;;;0.07;86.43;97545.97;4969303;28;20105;-81
2022/01/26 10:23:06;;;;;;;72.15;29.52;;;;;;;0.17;86.13;97563.19;4969722;28;20077;-80
2022/01/26 10:25:32;;;;;;;74.75;29.15;;;;;;;0.20;85.68;97560.03;4968973;28;20051;-80
2022/01/26 10:27:59;;;;;;;73.28;30.40;;;;;;;0.32;86.13;97559.31;4969268;28;20050;-80
2022/01/26 10:30:26;;;;;;;75.88;30.05;;;;;;;0.42;85.47;97565.81;4968848;28;20645;-80
2022/01/26 10:32:52;;;;;;;66.03;28.50;;;;;;;0.44;84.13;97569.06;4969219;28;20525;-80
2022/01/26 10:35:19;;;;;;;69.35;28.70;;;;;;;0.50;84.20;97567.34;4968489;28;20066;-81
2022/01/26 10:37:51;;;;;;;72.15;28.83;;;;;;;0.64;84.13;97563.47;4968924;28;20046;-79
2022/01/26 10:40:22;;;;;;;72.32;28.55;;;;;;;0.75;83.62;97551.19;4969267;28;20066;-80
2022/01/26 10:42:57;;;;;;;76.50;28.52;;;;;;;0.86;83.73;97545.03;4969410;28;20085;-81
2022/01/26 10:45:34;;;;;;;69.63;29.13;;;;;;;0.94;82.67;97531.34;4968580;28;20521;-81
2022/01/26 10:48:18;;;;;;;69.03;28.95;;;;;;;0.96;81.88;97518.50;4969646;28;20082;-81
2022/01/26 10:51:08;;;;;;;70.57;28.38;;;;;;;0.94;82.30;97512.56;4969171;28;20138;-80
2022/01/26 10:53:39;;;;;;;70.90;28.20;;;;;;;0.90;81.73;97505.19;4968748;28;20082;-80
2022/01/26 10:56:08;;;;;;;77.07;30.25;;;;;;;0.93;81.98;97512.75;4968124;28;20054;-80
2022/01/26 10:58:35;;;;;;;74.32;27.65;;;;;;;1.00;82.45;97505.47;4969262;28;20058;-81
2022/01/26 11:01:01;;;;;;;68.45;26.98;;;;;;;1.04;81.87;97504.78;4969162;28;20051;-78
2022/01/26 11:03:28;;;;;;;77.10;30.42;;;;;;;1.00;81.21;97492.03;4970226;28;20055;-81
2022/01/26 11:05:55;;;;;;;78.80;30.33;;;;;;;0.94;81.98;97493.78;4968319;28;20055;-80
2022/01/26 11:08:24;;;;;;;76.35;29.63;;;;;;;0.96;82.42;97485.50;4968691;28;20054;-80
2022/01/26 11:10:51;;;;;;;74.32;30.25;;;;;;;1.02;82.26;97487.25;4969231;28;20061;-81
2022/01/26 11:13:27;;;;;;;72.30;29.65;;;;;;;1.11;82.53;97493.94;4968941;28;20794;-80
2022/01/26 11:15:54;;;;;;;79.25;31.30;;;;;;;1.13;82.40;97493.69;4969164;28;20086;-81
2022/01/26 11:18:21;;;;;;;75.70;29.90;;;;;;;1.24;82.71;97483.00;4968657;28;20057;-80
2022/01/26 11:20:50;;;;;;;83.25;29.80;;;;;;;1.18;81.38;97478.53;4969368;28;20105;-80
2022/01/26 11:23:19;;;;;;;71.40;29.65;;;;;;;1.18;81.82;97477.72;4972737;28;20145;-80
2022/01/26 11:25:48;;;;;;;68.57;27.80;;;;;;;1.14;81.35;97469.31;4972597;28;20047;-81
2022/01/26 11:28:17;;;;;;;75.40;28.45;;;;;;;1.04;81.84;97472.59;4972312;28;20054;-80
2022/01/26 11:30:46;;;;;;;66.28;27.65;;;;;;;1.00;82.29;97470.59;4972749;28;20054;-80
2022/01/26 11:33:15;;;;;;;80.00;30.33;;;;;;;0.98;82.39;97464.63;4972586;28;20134;-80
2022/01/26 11:35:44;;;;;;;74.13;29.23;;;;;;;0.92;82.33;97463.69;4972442;28;20054;-80
2022/01/26 11:38:30;;;;;;;82.88;30.35;;;;;;;0.90;82.66;97470.31;4971949;28;20059;-81
2022/01/26 11:46:54;;;;;;;72.53;28.52;;;;;;;1.16;82.88;97479.84;4912530;29;20026;-80
2022/01/26 11:49:24;;;;;;;76.85;28.67;;;;;;;1.31;82.61;97490.94;4912550;29;20056;-80
2022/01/26 11:51:55;;;;;;;80.63;30.63;;;;;;;1.38;82.02;97490.84;4941258;28;20054;-80
2022/01/26 11:54:23;;;;;;;70.93;29.67;;;;;;;1.44;81.52;97481.84;4971540;28;20051;-80
2022/01/26 11:57:07;;;;;;;75.93;29.88;;;;;;;1.45;80.84;97488.84;4972089;28;20050;-80
2022/01/26 11:59:37;;;;;;;73.40;29.20;;;;;;;1.35;80.94;97499.34;4972457;28;20057;-81
2022/01/26 12:02:21;;;;;;;77.35;31.15;;;;;;;1.31;81.01;97504.38;4971821;28;20055;-81
2022/01/26 12:04:58;;;;;;;79.13;31.20;;;;;;;1.38;81.45;97509.63;4972026;28;20046;-81
2022/01/26 12:07:25;;;;;;;72.25;29.48;;;;;;;1.38;80.96;97494.34;4971841;28;20047;-80
2022/01/26 12:09:52;;;;;;;67.95;29.02;;;;;;;1.41;81.21;97511.81;4971989;28;20043;-80
2022/01/26 12:12:20;;;;;;;74.00;30.25;;;;;;;1.47;80.48;97514.44;4971390;28;20059;-81
2022/01/26 12:15:01;;;;;;;72.10;30.35;;;;;;;1.52;80.85;97511.06;4972284;28;20055;-81
2022/01/26 12:17:34;;;;;;;68.93;27.75;;;;;;;1.51;80.31;97517.44;4952208;29;20051;-80
2022/01/26 12:32:00;;;;;;;68.37;29.43;;;;;;;1.47;79.93;97503.69;4952373;29;20047;-80
2022/01/26 12:37:00;;;;;;;74.15;29.48;;;;;;;1.56;80.97;97501.47;4951209;29;20421;-80
2022/01/26 12:42:11;;;;;;;65.95;27.15;;;;;;;1.58;80.32;97491.31;4950425;29;20047;-79
2022/01/26 12:44:38;;;;;;;66.78;26.98;;;;;;;1.53;80.94;97492.03;4951641;29;20672;-80
2022/01/26 12:47:05;;;;;;;65.45;27.95;;;;;;;1.55;80.95;97491.78;4969144;28;20494;-80
2022/01/26 12:49:34;;;;;;;67.10;28.00;;;;;;;1.52;80.79;97474.28;4971188;28;20541;-81
2022/01/26 12:52:01;;;;;;;62.75;25.92;;;;;;;1.56;80.44;97464.69;4971256;28;20054;-80
2022/01/26 12:54:28;;;;;;;70.25;27.35;;;;;;;1.64;80.10;97455.50;4970715;28;20057;-80
2022/01/26 12:57:03;;;;;;;68.82;26.63;;;;;;;1.74;79.96;97455.72;4970759;28;20506;-81
2022/01/26 12:59:30;;;;;;;61.47;27.05;;;;;;;1.77;78.44;97465.16;4970494;28;20430;-80